Olney, TX

8:03 AM CDT on May 28, 2015 (GMT -0500)
Sheppard Air Force Base-Wichita Falls Municipal | | Change Station
CLOSE
Current Station
Airport
Location: Wichita Falls,
Elevation: 1030 ft
Nearby Weather Stations

Elev 1030 ft 33.98 °N, 98.49 °W | Updated 11 minutes ago

Overcast
Overcast
64 °F
Feels Like 64 °F
N
8
Wind Variable Wind from SSE

Today
High -- | Low -- °F
--% Chance of Precip.
Yesterday
High -- | Low -- °F
Precip. -- in
6:27 AM 8:37 PM
Waxing Gibbous, 75% visible
Pressure 30.01 in
Visibility 10.0 miles
Clouds Few 5000 ft
Scattered Clouds 11000 ft
Mostly Cloudy 15000 ft
Dew Point 62 °F
Humidity 93%
Rainfall 0.25 in
Snow Depth Not available.
UV 1 out of 12
Pollen 6.90 out of 12
Air Quality Not available.
Flu Activity Sporadic
METAR KSPS 281252Z 15007KT 10SM FEW050 SCT110 BKN150 18/17 A3004 RMK AO2 SLP163 T01780167

More Conditions Fewer Conditions

Pressure 30.01 in
Visibility 10.0 miles
Clouds Few 5000 ft
Scattered Clouds 11000 ft
Mostly Cloudy 15000 ft
Dew Point 62 °F
Humidity 93%
Rainfall 0.25 in
Snow Depth Not available.
UV 1 out of 12
Pollen 6.90 out of 12
Air Quality Not available.
Flu Activity Sporadic
METAR KSPS 281252Z 15007KT 10SM FEW050 SCT110 BKN150 18/17 A3004 RMK AO2 SLP163 T01780167

More Conditions Fewer Conditions

10-Day Weather Forecast

Almanac

Astronomy

May. 28, 2015 Rise Set
Actual Time
Civil Twilight
Nautical Twilight
Astronomical Twilight
Moon
Length of Visible Light
Length of Day
Tomorrow will be .
, % of the Moon is Illuminated

Today's Extremes

State Highs State Lows

Community

WunderPhotos

Upload Photos

1,824,968 photos uploaded!

WunderBlogs® & News

Nearby

Air Quality

  Air Quality AQ Index Pollutant
Not available.

Snow Depth

Station Depth Elevation

Earthquake Activity

City Distance Mag. Time & Date
Minimum magnitude displayed is 2.5.

Coastal Water Temperatures

Place Temperature

Stations

Nearby Weather Stations

Station Location Temp. Windchill Dew Point Humidity Wind Precip. Elev Updated Type